Poringland, United Kingdom
Current Conditions -  °F | °C
As of 9:20 PM on Monday 24 Nov 2014 (Local Time) from EGSH Reporting Station
Light Fog Light Fog  
Wind Chill: 36°   Ceiling: Unl
Heat Index: 36°   Visibility: 4mi
Dew Point: 36°   Wind: 1mph
Humidity: 100%   Direction: 180°S
Pressure: 30.33"   Gusts: NA
Location:  52.57°N, 1.35°E
Report Text: EGSH 242120Z 18001KT 6000 MIFG NSC 02/02 Q1027
Loading
Personal Weather Stations






























Interactive Weather Map New forecast layout! Learn more

10-Day Weather Forecast

Advertisements
Track Severe Weather on mobile